Time,TemperatureF,DewpointF,PressureIn,WindDirection,WindDirectionDegrees,WindSpeedMPH,WindSpeedGustMPH,Humidity,HourlyPrecipIn,Conditions,Clouds,dailyrainin,SoftwareType,DateUTC
2013-11-20 00:00:00,29.3,13.4,30.28,North,0,0.0,0.0,51,0.00,,,0.00,pywws,2013-11-20 05:00:00,
2013-11-20 00:01:00,29.1,13.3,30.28,West,270,0.0,0.0,51,0.00,,,0.00,pywws,2013-11-20 05:01:00,
2013-11-20 00:02:00,29.3,13.4,30.28,North,0,0.0,0.0,51,0.00,,,0.00,pywws,2013-11-20 05:02:00,
2013-11-20 00:03:00,29.1,13.3,30.28,NW,315,0.0,0.0,51,0.00,,,0.00,pywws,2013-11-20 05:03:00,
2013-11-20 00:06:00,29.3,13.4,30.28,North,0,0.0,0.0,51,0.00,,,0.00,pywws,2013-11-20 05:06:00,
2013-11-20 00:07:00,29.5,13.6,30.28,West,270,0.0,2.2,51,0.00,,,0.00,pywws,2013-11-20 05:07:00,
2013-11-20 00:12:00,29.8,13.9,30.28,East,90,0.0,0.7,51,0.00,,,0.00,pywws,2013-11-20 05:12:00,
2013-11-20 00:18:00,29.8,13.9,30.28,West,270,0.0,0.0,51,0.00,,,0.00,pywws,2013-11-20 05:18:00,
2013-11-20 00:23:00,29.3,13.4,30.29,NW,315,0.0,0.0,51,0.00,,,0.00,pywws,2013-11-20 05:23:00,
2013-11-20 00:29:00,29.5,14.1,30.29,North,0,0.0,0.0,52,0.00,,,0.00,pywws,2013-11-20 05:29:00,
2013-11-20 00:35:00,29.5,14.1,30.29,NE,45,0.0,0.0,52,0.00,,,0.00,pywws,2013-11-20 05:35:00,
2013-11-20 00:40:00,29.8,13.9,30.30,North,0,0.0,0.0,51,0.00,,,0.00,pywws,2013-11-20 05:40:00,
2013-11-20 00:47:00,29.1,13.3,30.30,SW,225,0.0,0.0,51,0.00,,,0.00,pywws,2013-11-20 05:47:00,
2013-11-20 00:53:00,29.5,13.6,30.31,West,270,0.0,0.0,51,0.00,,,0.00,pywws,2013-11-20 05:53:00,
2013-11-20 00:59:00,28.9,13.1,30.31,West,270,0.0,0.0,51,0.00,,,0.00,pywws,2013-11-20 05:59:00,
2013-11-20 01:04:00,29.5,13.2,30.31,NE,45,0.0,0.0,50,0.00,,,0.00,pywws,2013-11-20 06:04:00,
2013-11-20 01:10:00,29.5,13.2,30.31,NW,315,0.0,0.0,50,0.00,,,0.00,pywws,2013-11-20 06:10:00,
2013-11-20 01:16:00,29.1,12.8,30.32,West,270,0.0,0.0,50,0.00,,,0.00,pywws,2013-11-20 06:16:00,
2013-11-20 01:22:00,29.5,13.2,30.32,NW,315,0.0,0.0,50,0.00,,,0.00,pywws,2013-11-20 06:22:00,
2013-11-20 01:27:00,28.9,12.2,30.32,West,270,0.0,0.0,49,0.00,,,0.00,pywws,2013-11-20 06:27:00,
2013-11-20 01:33:00,28.8,12.0,30.33,West,270,0.7,5.4,49,0.00,,,0.00,pywws,2013-11-20 06:33:00,
2013-11-20 01:39:00,28.8,12.5,30.32,SW,225,0.0,0.0,50,0.00,,,0.00,pywws,2013-11-20 06:39:00,
2013-11-20 01:45:00,28.8,12.5,30.33,North,0,0.0,0.0,50,0.00,,,0.00,pywws,2013-11-20 06:45:00,
2013-11-20 01:51:00,28.8,12.5,30.34,North,0,0.0,0.0,50,0.00,,,0.00,pywws,2013-11-20 06:51:00,
2013-11-20 01:56:00,28.8,12.0,30.34,NW,315,0.0,1.6,49,0.00,,,0.00,pywws,2013-11-20 06:56:00,
2013-11-20 02:02:00,28.8,12.0,30.34,East,90,0.0,0.0,49,0.00,,,0.00,pywws,2013-11-20 07:02:00,
2013-11-20 02:08:00,28.6,11.9,30.33,West,270,0.0,0.0,49,0.00,,,0.00,pywws,2013-11-20 07:08:00,
2013-11-20 02:14:00,28.6,11.9,30.34,North,0,0.0,0.7,49,0.00,,,0.00,pywws,2013-11-20 07:14:00,
2013-11-20 02:19:00,28.4,11.7,30.34,NW,315,0.0,0.0,49,0.00,,,0.00,pywws,2013-11-20 07:19:00,
2013-11-20 02:25:00,28.0,9.5,30.34,West,270,0.0,2.2,45,0.00,,,0.00,pywws,2013-11-20 07:25:00,
2013-11-20 02:31:00,28.0,9.5,30.34,North,0,0.0,0.0,45,0.00,,,0.00,pywws,2013-11-20 07:31:00,
2013-11-20 02:36:00,28.0,9.5,30.34,North,0,0.0,0.0,45,0.00,,,0.00,pywws,2013-11-20 07:36:00,
2013-11-20 02:42:00,27.7,9.1,30.34,North,0,0.0,3.1,45,0.00,,,0.00,pywws,2013-11-20 07:42:00,
2013-11-20 02:47:00,28.0,9.5,30.34,North,0,0.0,0.0,45,0.00,,,0.00,pywws,2013-11-20 07:47:00,
2013-11-20 02:53:00,27.9,9.3,30.34,North,0,0.0,0.0,45,0.00,,,0.00,pywws,2013-11-20 07:53:00,
2013-11-20 02:59:00,27.7,9.6,30.34,North,0,0.0,0.0,46,0.00,,,0.00,pywws,2013-11-20 07:59:00,
2013-11-20 03:04:00,27.9,9.3,30.35,North,0,0.0,0.0,45,0.00,,,0.00,pywws,2013-11-20 08:04:00,
2013-11-20 03:10:00,27.5,9.5,30.35,North,0,0.0,0.0,46,0.00,,,0.00,pywws,2013-11-20 08:10:00,
2013-11-20 03:15:00,27.3,9.3,30.35,North,0,0.0,0.0,46,0.00,,,0.00,pywws,2013-11-20 08:15:00,
2013-11-20 03:21:00,27.7,9.6,30.36,West,270,0.0,0.0,46,0.00,,,0.00,pywws,2013-11-20 08:21:00,
2013-11-20 03:27:00,27.3,9.3,30.36,NW,315,0.0,0.0,46,0.00,,,0.00,pywws,2013-11-20 08:27:00,
2013-11-20 03:32:00,26.6,9.1,30.36,East,90,0.0,0.0,47,0.00,,,0.00,pywws,2013-11-20 08:32:00,
2013-11-20 03:38:00,27.3,9.8,30.37,North,0,0.0,0.0,47,0.00,,,0.00,pywws,2013-11-20 08:38:00,
2013-11-20 03:44:00,26.8,9.3,30.37,North,0,0.0,0.0,47,0.00,,,0.00,pywws,2013-11-20 08:44:00,
2013-11-20 03:50:00,27.0,9.9,30.37,North,0,0.0,0.0,48,0.00,,,0.00,pywws,2013-11-20 08:50:00,
2013-11-20 03:55:00,27.1,10.1,30.37,North,0,0.0,0.0,48,0.00,,,0.00,pywws,2013-11-20 08:55:00,
2013-11-20 04:01:00,27.0,9.4,30.37,West,270,0.0,0.0,47,0.00,,,0.00,pywws,2013-11-20 09:01:00,
2013-11-20 04:07:00,27.1,9.6,30.37,NW,315,0.0,0.0,47,0.00,,,0.00,pywws,2013-11-20 09:07:00,
2013-11-20 04:13:00,27.0,9.9,30.37,South,180,0.0,0.0,48,0.00,,,0.00,pywws,2013-11-20 09:13:00,
2013-11-20 04:19:00,27.1,9.6,30.37,North,0,0.0,0.0,47,0.00,,,0.00,pywws,2013-11-20 09:19:00,
2013-11-20 04:24:00,26.8,9.3,30.37,East,90,0.0,0.0,47,0.00,,,0.00,pywws,2013-11-20 09:24:00,
2013-11-20 04:30:00,26.2,9.3,30.37,East,90,0.0,0.0,48,0.00,,,0.00,pywws,2013-11-20 09:30:00,
2013-11-20 04:35:00,26.8,9.8,30.38,North,0,0.0,0.0,48,0.00,,,0.00,pywws,2013-11-20 09:35:00,
2013-11-20 04:41:00,27.0,9.9,30.38,North,0,0.0,0.0,48,0.00,,,0.00,pywws,2013-11-20 09:41:00,
2013-11-20 04:47:00,26.8,9.8,30.38,North,0,0.0,0.0,48,0.00,,,0.00,pywws,2013-11-20 09:47:00,
2013-11-20 04:53:00,27.0,9.9,30.38,NW,315,0.0,0.0,48,0.00,,,0.00,pywws,2013-11-20 09:53:00,
2013-11-20 04:59:00,27.0,9.9,30.39,North,0,0.0,0.7,48,0.00,,,0.00,pywws,2013-11-20 09:59:00,
2013-11-20 05:04:00,27.0,9.9,30.39,NW,315,0.0,0.7,48,0.00,,,0.00,pywws,2013-11-20 10:04:00,
2013-11-20 05:10:00,26.8,9.8,30.39,NW,315,0.0,0.0,48,0.00,,,0.00,pywws,2013-11-20 10:10:00,
2013-11-20 05:20:00,26.4,9.9,30.40,North,0,0.0,0.0,49,0.00,,,0.00,pywws,2013-11-20 10:20:00,
2013-11-20 05:26:00,26.8,9.8,30.40,North,0,0.0,0.0,48,0.00,,,0.00,pywws,2013-11-20 10:26:00,
2013-11-20 05:31:00,26.6,10.0,30.40,North,0,0.0,0.0,49,0.00,,,0.00,pywws,2013-11-20 10:31:00,
2013-11-20 05:37:00,26.6,10.5,30.41,North,0,0.0,0.0,50,0.00,,,0.00,pywws,2013-11-20 10:37:00,
2013-11-20 05:43:00,26.1,10.4,30.42,NW,315,0.0,0.0,51,0.00,,,0.00,pywws,2013-11-20 10:43:00,
2013-11-20 05:48:00,26.8,10.2,30.42,North,0,0.0,0.0,49,0.00,,,0.00,pywws,2013-11-20 10:48:00,
2013-11-20 05:55:00,26.1,10.4,30.42,West,270,0.0,0.0,51,0.00,,,0.00,pywws,2013-11-20 10:55:00,
2013-11-20 06:00:00,26.2,10.6,30.42,East,90,0.0,0.0,51,0.00,,,0.00,pywws,2013-11-20 11:00:00,
2013-11-20 06:06:00,26.2,10.6,30.43,North,0,0.0,0.0,51,0.00,,,0.00,pywws,2013-11-20 11:06:00,
2013-11-20 06:11:00,26.6,10.9,30.43,West,270,0.0,0.0,51,0.00,,,0.00,pywws,2013-11-20 11:11:00,
2013-11-20 06:18:00,25.9,10.7,30.43,West,270,0.0,0.0,52,0.00,,,0.00,pywws,2013-11-20 11:18:00,
2013-11-20 06:23:00,26.6,10.9,30.43,North,0,0.0,0.0,51,0.00,,,0.00,pywws,2013-11-20 11:23:00,
2013-11-20 06:29:00,26.6,10.9,30.43,North,0,0.0,0.0,51,0.00,,,0.00,pywws,2013-11-20 11:29:00,
2013-11-20 06:35:00,26.6,10.9,30.43,East,90,0.0,0.0,51,0.00,,,0.00,pywws,2013-11-20 11:35:00,
2013-11-20 06:41:00,26.6,10.9,30.44,South,180,0.0,0.0,51,0.00,,,0.00,pywws,2013-11-20 11:41:00,
2013-11-20 06:47:00,26.6,10.9,30.44,North,0,0.0,0.0,51,0.00,,,0.00,pywws,2013-11-20 11:47:00,
2013-11-20 06:52:00,26.6,10.9,30.44,North,0,0.0,0.0,51,0.00,,,0.00,pywws,2013-11-20 11:52:00,
2013-11-20 06:58:00,26.4,11.2,30.45,North,0,0.0,0.0,52,0.00,,,0.00,pywws,2013-11-20 11:58:00,
2013-11-20 07:04:00,26.6,10.9,30.45,North,0,0.0,0.0,51,0.00,,,0.00,pywws,2013-11-20 12:04:00,
2013-11-20 07:10:00,27.0,11.3,30.46,North,0,0.0,0.0,51,0.00,,,0.00,pywws,2013-11-20 12:10:00,
2013-11-20 07:16:00,26.8,11.1,30.46,North,0,0.0,0.0,51,0.00,,,0.00,pywws,2013-11-20 12:16:00,
2013-11-20 07:22:00,26.6,10.9,30.47,North,0,0.0,0.0,51,0.00,,,0.00,pywws,2013-11-20 12:22:00,
2013-11-20 07:27:00,26.8,11.1,30.47,North,0,0.0,0.0,51,0.00,,,0.00,pywws,2013-11-20 12:27:00,
2013-11-20 07:33:00,27.3,11.6,30.47,West,270,0.0,0.0,51,0.00,,,0.00,pywws,2013-11-20 12:33:00,
2013-11-20 07:39:00,27.9,12.1,30.47,NW,315,0.0,0.0,51,0.00,,,0.00,pywws,2013-11-20 12:39:00,
2013-11-20 07:44:00,28.4,13.9,30.47,North,0,0.0,0.0,54,0.00,,,0.00,pywws,2013-11-20 12:44:00,
2013-11-20 07:50:00,28.8,14.2,30.48,West,270,0.0,0.0,54,0.00,,,0.00,pywws,2013-11-20 12:50:00,
2013-11-20 07:55:00,28.6,13.6,30.47,NW,315,0.0,0.0,53,0.00,,,0.00,pywws,2013-11-20 12:55:00,
2013-11-20 08:01:00,28.6,13.2,30.48,West,270,0.0,0.7,52,0.00,,,0.00,pywws,2013-11-20 13:01:00,
2013-11-20 08:07:00,28.9,13.1,30.48,East,90,0.0,0.0,51,0.00,,,0.00,pywws,2013-11-20 13:07:00,
2013-11-20 08:12:00,29.1,13.3,30.49,NW,315,0.0,0.0,51,0.00,,,0.00,pywws,2013-11-20 13:12:00,
2013-11-20 08:18:00,29.3,13.0,30.49,West,270,0.0,0.0,50,0.00,,,0.00,pywws,2013-11-20 13:18:00,
2013-11-20 08:23:00,29.5,13.2,30.50,SE,135,0.0,0.0,50,0.00,,,0.00,pywws,2013-11-20 13:23:00,
2013-11-20 08:29:00,29.7,13.3,30.51,East,90,0.0,0.7,50,0.00,,,0.00,pywws,2013-11-20 13:29:00,
2013-11-20 08:35:00,30.0,13.7,30.51,North,0,0.0,0.0,50,0.00,,,0.00,pywws,2013-11-20 13:35:00,
2013-11-20 08:40:00,30.0,13.2,30.51,North,0,0.0,0.0,49,0.00,,,0.00,pywws,2013-11-20 13:40:00,
2013-11-20 08:46:00,30.2,12.9,30.51,West,270,0.0,0.7,48,0.00,,,0.00,pywws,2013-11-20 13:46:00,
2013-11-20 08:51:00,30.6,12.8,30.51,North,0,0.0,0.0,47,0.00,,,0.00,pywws,2013-11-20 13:51:00,
2013-11-20 08:57:00,30.7,12.9,30.51,North,0,0.0,0.0,47,0.00,,,0.00,pywws,2013-11-20 13:57:00,
2013-11-20 09:03:00,31.3,13.4,30.52,SW,225,4.5,8.3,47,0.00,,,0.00,pywws,2013-11-20 14:03:00,
2013-11-20 09:08:00,31.8,13.4,30.52,North,0,0.0,0.0,46,0.00,,,0.00,pywws,2013-11-20 14:08:00,
2013-11-20 09:14:00,32.0,13.1,30.52,North,0,0.0,2.2,45,0.00,,,0.00,pywws,2013-11-20 14:14:00,
2013-11-20 09:19:00,31.8,12.9,30.53,SE,135,0.7,3.8,45,0.00,,,0.00,pywws,2013-11-20 14:19:00,
2013-11-20 09:25:00,32.5,12.6,30.52,South,180,0.7,6.0,43,0.00,,,0.00,pywws,2013-11-20 14:25:00,
2013-11-20 09:31:00,32.4,12.4,30.53,North,0,0.0,0.7,43,0.00,,,0.00,pywws,2013-11-20 14:31:00,
2013-11-20 09:36:00,32.7,12.7,30.53,East,90,0.0,2.2,43,0.00,,,0.00,pywws,2013-11-20 14:36:00,
2013-11-20 09:42:00,33.4,12.3,30.53,North,0,0.0,0.7,41,0.00,,,0.00,pywws,2013-11-20 14:42:00,
2013-11-20 09:47:00,33.1,10.8,30.53,NW,315,0.0,0.0,39,0.00,,,0.00,pywws,2013-11-20 14:47:00,
2013-11-20 09:53:00,33.4,10.6,30.53,NE,45,0.7,5.4,38,0.00,,,0.00,pywws,2013-11-20 14:53:00,
2013-11-20 09:59:00,35.1,10.8,30.53,East,90,0.0,0.0,36,0.00,,,0.00,pywws,2013-11-20 14:59:00,
2013-11-20 10:04:00,34.7,9.2,30.53,East,90,0.0,0.7,34,0.00,,,0.00,pywws,2013-11-20 15:04:00,
2013-11-20 10:10:00,35.1,9.6,30.53,East,90,0.0,0.0,34,0.00,,,0.00,pywws,2013-11-20 15:10:00,
2013-11-20 10:15:00,35.2,9.0,30.54,North,0,0.0,3.1,33,0.00,,,0.00,pywws,2013-11-20 15:15:00,
2013-11-20 10:21:00,36.5,9.5,30.53,North,0,0.0,0.0,32,0.00,,,0.00,pywws,2013-11-20 15:21:00,
2013-11-20 10:27:00,35.8,8.1,30.53,North,0,0.0,0.0,31,0.00,,,0.00,pywws,2013-11-20 15:27:00,
2013-11-20 10:32:00,36.7,9.6,30.53,North,0,0.0,0.0,32,0.00,,,0.00,pywws,2013-11-20 15:32:00,
2013-11-20 10:38:00,36.3,7.9,30.53,North,0,0.0,0.7,30,0.00,,,0.00,pywws,2013-11-20 15:38:00,
2013-11-20 10:43:00,37.2,7.9,30.54,NW,315,0.0,0.0,29,0.00,,,0.00,pywws,2013-11-20 15:43:00,
2013-11-20 10:49:00,36.1,5.4,30.53,North,0,0.7,6.9,27,0.00,,,0.00,pywws,2013-11-20 15:49:00,
2013-11-20 10:55:00,36.0,5.3,30.53,North,0,0.0,0.0,27,0.00,,,0.00,pywws,2013-11-20 15:55:00,
2013-11-20 11:00:00,36.7,5.9,30.53,NE,45,0.0,0.0,27,0.00,,,0.00,pywws,2013-11-20 16:00:00,
2013-11-20 11:06:00,37.4,9.6,30.53,North,0,0.0,0.0,31,0.00,,,0.00,pywws,2013-11-20 16:06:00,
2013-11-20 11:11:00,37.9,9.3,30.52,West,270,0.0,0.0,30,0.00,,,0.00,pywws,2013-11-20 16:11:00,
2013-11-20 11:17:00,38.1,8.7,30.53,SE,135,0.0,0.0,29,0.00,,,0.00,pywws,2013-11-20 16:17:00,
2013-11-20 11:23:00,38.1,7.9,30.52,NE,45,0.0,0.0,28,0.00,,,0.00,pywws,2013-11-20 16:23:00,
2013-11-20 11:28:00,37.8,7.6,30.51,North,0,0.0,0.7,28,0.00,,,0.00,pywws,2013-11-20 16:28:00,
2013-11-20 11:34:00,37.9,8.6,30.52,SE,135,0.0,0.7,29,0.00,,,0.00,pywws,2013-11-20 16:34:00,
2013-11-20 11:39:00,37.4,7.3,30.52,West,270,0.0,0.0,28,0.00,,,0.00,pywws,2013-11-20 16:39:00,
2013-11-20 11:45:00,38.1,7.9,30.52,East,90,0.0,0.7,28,0.00,,,0.00,pywws,2013-11-20 16:45:00,
2013-11-20 11:51:00,38.7,9.2,30.52,West,270,0.0,4.5,29,0.00,,,0.00,pywws,2013-11-20 16:51:00,
2013-11-20 11:56:00,39.6,10.0,30.52,North,0,0.0,0.0,29,0.00,,,0.00,pywws,2013-11-20 16:56:00,
2013-11-20 12:02:00,38.3,8.9,30.52,SW,225,0.0,0.0,29,0.00,,,0.00,pywws,2013-11-20 17:02:00,
2013-11-20 12:08:00,38.5,9.0,30.51,North,0,0.0,0.0,29,0.00,,,0.00,pywws,2013-11-20 17:08:00,
2013-11-20 12:13:00,39.2,8.1,30.51,North,0,0.7,3.8,27,0.00,,,0.00,pywws,2013-11-20 17:13:00,
2013-11-20 12:19:00,39.4,7.4,30.51,NE,45,0.0,0.7,26,0.00,,,0.00,pywws,2013-11-20 17:19:00,
2013-11-20 12:25:00,40.5,8.3,30.51,NW,315,0.0,0.0,26,0.00,,,0.00,pywws,2013-11-20 17:25:00,
2013-11-20 12:31:00,40.5,8.3,30.51,North,0,0.0,0.0,26,0.00,,,0.00,pywws,2013-11-20 17:31:00,
2013-11-20 12:36:00,39.6,7.5,30.51,NE,45,0.0,0.0,26,0.00,,,0.00,pywws,2013-11-20 17:36:00,
2013-11-20 12:42:00,39.7,8.5,30.51,West,270,0.0,0.0,27,0.00,,,0.00,pywws,2013-11-20 17:42:00,
2013-11-20 12:47:00,40.3,8.2,30.50,East,90,0.0,0.0,26,0.00,,,0.00,pywws,2013-11-20 17:47:00,
2013-11-20 12:53:00,39.9,7.0,30.51,North,0,0.0,0.0,25,0.00,,,0.00,pywws,2013-11-20 17:53:00,
2013-11-20 12:59:00,40.8,7.8,30.51,West,270,0.0,0.0,25,0.00,,,0.00,pywws,2013-11-20 17:59:00,
2013-11-20 13:04:00,40.6,7.6,30.51,East,90,0.0,0.7,25,0.00,,,0.00,pywws,2013-11-20 18:04:00,
2013-11-20 13:10:00,40.5,6.5,30.51,South,180,0.0,2.2,24,0.00,,,0.00,pywws,2013-11-20 18:10:00,
2013-11-20 13:15:00,41.0,7.0,30.51,North,0,0.0,0.0,24,0.00,,,0.00,pywws,2013-11-20 18:15:00,
2013-11-20 13:21:00,41.7,7.6,30.51,NE,45,0.0,0.7,24,0.00,,,0.00,pywws,2013-11-20 18:21:00,
2013-11-20 13:27:00,41.0,6.1,30.51,SE,135,0.7,3.8,23,0.00,,,0.00,pywws,2013-11-20 18:27:00,
2013-11-20 13:32:00,40.8,6.9,30.51,North,0,0.0,0.0,24,0.00,,,0.00,pywws,2013-11-20 18:32:00,
2013-11-20 13:38:00,41.4,7.3,30.51,North,0,0.0,0.7,24,0.00,,,0.00,pywws,2013-11-20 18:38:00,
2013-11-20 13:43:00,41.2,7.2,30.51,North,0,0.0,0.7,24,0.00,,,0.00,pywws,2013-11-20 18:43:00,
2013-11-20 13:49:00,41.4,7.3,30.51,East,90,0.0,0.0,24,0.00,,,0.00,pywws,2013-11-20 18:49:00,
2013-11-20 13:55:00,42.6,7.4,30.51,North,0,0.0,0.0,23,0.00,,,0.00,pywws,2013-11-20 18:55:00,
2013-11-20 14:00:00,42.1,7.0,30.51,East,90,0.7,3.8,23,0.00,,,0.00,pywws,2013-11-20 19:00:00,
2013-11-20 14:06:00,42.3,7.1,30.51,East,90,0.0,0.7,23,0.00,,,0.00,pywws,2013-11-20 19:06:00,
2013-11-20 14:11:00,42.3,7.1,30.52,NW,315,0.0,0.0,23,0.00,,,0.00,pywws,2013-11-20 19:11:00,
2013-11-20 14:17:00,42.1,7.0,30.51,NE,45,0.0,0.0,23,0.00,,,0.00,pywws,2013-11-20 19:17:00,
2013-11-20 14:23:00,42.4,7.3,30.52,NW,315,0.0,0.0,23,0.00,,,0.00,pywws,2013-11-20 19:23:00,
2013-11-20 14:28:00,42.6,7.4,30.52,North,0,0.0,0.0,23,0.00,,,0.00,pywws,2013-11-20 19:28:00,
2013-11-20 14:35:00,42.3,7.1,30.52,North,0,0.0,0.0,23,0.00,,,0.00,pywws,2013-11-20 19:35:00,
2013-11-20 14:41:00,42.6,7.4,30.52,North,0,0.0,0.0,23,0.00,,,0.00,pywws,2013-11-20 19:41:00,
2013-11-20 14:47:00,43.0,6.8,30.51,East,90,0.0,0.0,22,0.00,,,0.00,pywws,2013-11-20 19:47:00,
2013-11-20 14:52:00,42.6,7.4,30.52,NW,315,0.0,0.7,23,0.00,,,0.00,pywws,2013-11-20 19:52:00,
2013-11-20 14:58:00,41.9,6.8,30.51,North,0,0.0,0.0,23,0.00,,,0.00,pywws,2013-11-20 19:58:00,
2013-11-20 15:03:00,41.7,6.7,30.52,West,270,0.0,0.0,23,0.00,,,0.00,pywws,2013-11-20 20:03:00,
2013-11-20 15:09:00,41.5,6.5,30.52,East,90,0.0,0.0,23,0.00,,,0.00,pywws,2013-11-20 20:09:00,
2013-11-20 15:15:00,41.4,6.4,30.53,East,90,0.0,0.0,23,0.00,,,0.00,pywws,2013-11-20 20:15:00,
2013-11-20 15:20:00,41.2,6.2,30.53,East,90,0.0,0.0,23,0.00,,,0.00,pywws,2013-11-20 20:20:00,
2013-11-20 15:26:00,41.2,6.2,30.53,North,0,0.0,0.7,23,0.00,,,0.00,pywws,2013-11-20 20:26:00,
2013-11-20 15:31:00,40.6,6.7,30.53,NE,45,0.0,0.0,24,0.00,,,0.00,pywws,2013-11-20 20:31:00,
2013-11-20 15:37:00,40.5,6.5,30.53,NE,45,0.0,0.0,24,0.00,,,0.00,pywws,2013-11-20 20:37:00,
2013-11-20 15:43:00,40.1,6.2,30.53,North,0,0.0,0.0,24,0.00,,,0.00,pywws,2013-11-20 20:43:00,
2013-11-20 15:48:00,39.6,5.8,30.53,North,0,0.0,0.0,24,0.00,,,0.00,pywws,2013-11-20 20:48:00,
2013-11-20 15:54:00,38.7,5.9,30.54,North,0,0.0,0.0,25,0.00,,,0.00,pywws,2013-11-20 20:54:00,
2013-11-20 15:59:00,38.3,6.5,30.53,North,0,0.0,0.0,26,0.00,,,0.00,pywws,2013-11-20 20:59:00,
2013-11-20 16:05:00,37.2,2.9,30.53,North,0,0.0,0.0,23,0.00,,,0.00,pywws,2013-11-20 21:05:00,
2013-11-20 16:11:00,37.6,6.7,30.54,NE,45,0.0,0.0,27,0.00,,,0.00,pywws,2013-11-20 21:11:00,
2013-11-20 16:17:00,36.7,2.4,30.54,North,0,0.0,0.0,23,0.00,,,0.00,pywws,2013-11-20 21:17:00,
2013-11-20 16:23:00,36.1,2.0,30.54,East,90,0.0,0.0,23,0.00,,,0.00,pywws,2013-11-20 21:23:00,
2013-11-20 16:28:00,34.5,4.0,30.55,East,90,0.0,0.0,27,0.00,,,0.00,pywws,2013-11-20 21:28:00,
2013-11-20 16:34:00,33.6,6.9,30.55,North,0,0.0,0.0,32,0.00,,,0.00,pywws,2013-11-20 21:34:00,
2013-11-20 16:39:00,32.4,7.8,30.54,North,0,0.0,0.0,35,0.00,,,0.00,pywws,2013-11-20 21:39:00,
2013-11-20 16:45:00,31.5,9.4,30.55,East,90,0.0,0.0,39,0.00,,,0.00,pywws,2013-11-20 21:45:00,
2013-11-20 16:51:00,30.7,10.4,30.55,East,90,0.0,0.0,42,0.00,,,0.00,pywws,2013-11-20 21:51:00,
2013-11-20 16:56:00,30.4,11.1,30.55,East,90,0.0,0.0,44,0.00,,,0.00,pywws,2013-11-20 21:56:00,
2013-11-20 17:02:00,29.8,9.6,30.55,East,90,0.0,0.0,42,0.00,,,0.00,pywws,2013-11-20 22:02:00,
2013-11-20 17:07:00,28.9,8.8,30.56,East,90,0.0,0.0,42,0.00,,,0.00,pywws,2013-11-20 22:07:00,
2013-11-20 17:13:00,28.4,9.8,30.56,East,90,0.0,0.0,45,0.00,,,0.00,pywws,2013-11-20 22:13:00,
2013-11-20 17:20:00,28.2,8.1,30.56,East,90,0.0,0.0,42,0.00,,,0.00,pywws,2013-11-20 22:20:00,
2013-11-20 17:26:00,28.0,7.9,30.56,East,90,0.0,0.0,42,0.00,,,0.00,pywws,2013-11-20 22:26:00,
2013-11-20 17:31:00,27.5,8.0,30.56,East,90,0.0,0.0,43,0.00,,,0.00,pywws,2013-11-20 22:31:00,
2013-11-20 17:37:00,27.0,8.5,30.56,East,90,0.0,0.0,45,0.00,,,0.00,pywws,2013-11-20 22:37:00,
2013-11-20 17:43:00,26.8,8.3,30.56,West,270,0.0,0.0,45,0.00,,,0.00,pywws,2013-11-20 22:43:00,
2013-11-20 17:48:00,26.2,9.3,30.57,North,0,0.0,0.0,48,0.00,,,0.00,pywws,2013-11-20 22:48:00,
2013-11-20 17:54:00,27.3,9.8,30.57,North,0,0.0,0.0,47,0.00,,,0.00,pywws,2013-11-20 22:54:00,
2013-11-20 17:59:00,26.8,9.3,30.57,East,90,0.0,0.0,47,0.00,,,0.00,pywws,2013-11-20 22:59:00,
2013-11-20 18:05:00,26.4,9.4,30.57,West,270,0.0,0.0,48,0.00,,,0.00,pywws,2013-11-20 23:05:00,
2013-11-20 18:11:00,26.4,9.9,30.57,North,0,0.0,0.0,49,0.00,,,0.00,pywws,2013-11-20 23:11:00,
2013-11-20 18:16:00,26.1,9.5,30.57,North,0,0.0,0.0,49,0.00,,,0.00,pywws,2013-11-20 23:16:00,
2013-11-20 18:22:00,25.5,9.5,30.57,North,0,0.0,0.0,50,0.00,,,0.00,pywws,2013-11-20 23:22:00,
2013-11-20 18:27:00,25.2,9.2,30.57,North,0,0.0,0.0,50,0.00,,,0.00,pywws,2013-11-20 23:27:00,
2013-11-20 18:35:00,24.3,9.2,30.58,North,0,0.0,0.0,52,0.00,,,0.00,pywws,2013-11-20 23:35:00,
2013-11-20 18:43:00,23.7,9.1,30.58,North,0,0.0,0.0,53,0.00,,,0.00,pywws,2013-11-20 23:43:00,
2013-11-20 18:49:00,24.1,9.5,30.59,North,0,0.0,0.0,53,0.00,,,0.00,pywws,2013-11-20 23:49:00,
2013-11-20 18:55:00,23.5,9.0,30.58,North,0,0.0,0.0,53,0.00,,,0.00,pywws,2013-11-20 23:55:00,
2013-11-20 19:01:00,24.3,10.0,30.59,North,0,0.0,0.0,54,0.00,,,0.00,pywws,2013-11-21 00:01:00,
2013-11-20 19:07:00,23.4,9.2,30.59,North,0,0.0,0.0,54,0.00,,,0.00,pywws,2013-11-21 00:07:00,
2013-11-20 19:13:00,23.0,8.9,30.59,North,0,0.0,0.0,54,0.00,,,0.00,pywws,2013-11-21 00:13:00,
2013-11-20 19:19:00,23.7,9.9,30.59,North,0,0.0,0.0,55,0.00,,,0.00,pywws,2013-11-21 00:19:00,
2013-11-20 19:25:00,23.5,9.8,30.59,North,0,0.0,0.0,55,0.00,,,0.00,pywws,2013-11-21 00:25:00,
2013-11-20 19:31:00,22.8,9.5,30.59,North,0,0.0,0.0,56,0.00,,,0.00,pywws,2013-11-21 00:31:00,
2013-11-20 19:37:00,23.5,10.2,30.60,North,0,0.0,0.0,56,0.00,,,0.00,pywws,2013-11-21 00:37:00,
2013-11-20 19:43:00,23.2,9.4,30.60,North,0,0.0,0.0,55,0.00,,,0.00,pywws,2013-11-21 00:43:00,
2013-11-20 19:48:00,22.5,9.2,30.60,North,0,0.0,0.0,56,0.00,,,0.00,pywws,2013-11-21 00:48:00,
2013-11-20 19:54:00,22.8,10.3,30.60,North,0,0.0,0.0,58,0.00,,,0.00,pywws,2013-11-21 00:54:00,
2013-11-20 20:01:00,22.6,10.1,30.59,North,0,0.0,0.0,58,0.00,,,0.00,pywws,2013-11-21 01:01:00,
2013-11-20 20:07:00,22.5,10.3,30.60,North,0,0.0,0.0,59,0.00,,,0.00,pywws,2013-11-21 01:07:00,
2013-11-20 20:12:00,23.0,10.5,30.60,North,0,0.0,0.0,58,0.00,,,0.00,pywws,2013-11-21 01:12:00,
2013-11-20 20:18:00,22.6,10.5,30.60,North,0,0.0,0.0,59,0.00,,,0.00,pywws,2013-11-21 01:18:00,
2013-11-20 20:23:00,22.1,10.0,30.59,South,180,0.0,0.0,59,0.00,,,0.00,pywws,2013-11-21 01:23:00,
2013-11-20 20:36:00,22.3,10.2,30.59,South,180,0.0,0.0,59,0.00,,,0.00,pywws,2013-11-21 01:36:00,
2013-11-20 20:42:00,21.6,10.6,30.59,North,0,0.0,0.0,62,0.00,,,0.00,pywws,2013-11-21 01:42:00,
2013-11-20 20:47:00,21.2,10.2,30.59,North,0,0.0,0.0,62,0.00,,,0.00,pywws,2013-11-21 01:47:00,
2013-11-20 20:53:00,21.4,11.1,30.59,North,0,0.0,0.0,64,0.00,,,0.00,pywws,2013-11-21 01:53:00,
2013-11-20 21:00:00,21.6,11.3,30.59,North,0,0.0,0.0,64,0.00,,,0.00,pywws,2013-11-21 02:00:00,
2013-11-20 21:06:00,21.4,11.1,30.59,North,0,0.0,0.0,64,0.00,,,0.00,pywws,2013-11-21 02:06:00,
2013-11-20 21:11:00,21.7,11.8,30.60,West,270,0.0,0.0,65,0.00,,,0.00,pywws,2013-11-21 02:11:00,
2013-11-20 21:17:00,21.9,12.0,30.60,North,0,0.0,0.0,65,0.00,,,0.00,pywws,2013-11-21 02:17:00,
2013-11-20 21:23:00,20.8,11.0,30.60,North,0,0.0,0.0,65,0.00,,,0.00,pywws,2013-11-21 02:23:00,
2013-11-20 21:28:00,20.7,11.1,30.59,North,0,0.0,0.0,66,0.00,,,0.00,pywws,2013-11-21 02:28:00,
2013-11-20 21:34:00,20.3,10.8,30.60,North,0,0.0,0.0,66,0.00,,,0.00,pywws,2013-11-21 02:34:00,
2013-11-20 21:40:00,20.3,10.8,30.59,North,0,0.0,0.0,66,0.00,,,0.00,pywws,2013-11-21 02:40:00,
2013-11-20 21:46:00,19.6,10.1,30.59,North,0,0.0,0.0,66,0.00,,,0.00,pywws,2013-11-21 02:46:00,
2013-11-20 21:51:00,19.8,10.6,30.60,North,0,0.0,0.0,67,0.00,,,0.00,pywws,2013-11-21 02:51:00,
2013-11-20 21:57:00,19.4,10.3,30.60,North,0,0.0,0.0,67,0.00,,,0.00,pywws,2013-11-21 02:57:00,
2013-11-20 22:03:00,19.6,10.8,30.59,North,0,0.0,0.0,68,0.00,,,0.00,pywws,2013-11-21 03:03:00,
2013-11-20 22:08:00,19.0,8.9,30.60,North,0,0.0,0.0,64,0.00,,,0.00,pywws,2013-11-21 03:08:00,
2013-11-20 22:14:00,18.9,8.7,30.60,North,0,0.0,0.0,64,0.00,,,0.00,pywws,2013-11-21 03:14:00,
2013-11-20 22:19:00,19.8,11.3,30.60,North,0,0.0,0.0,69,0.00,,,0.00,pywws,2013-11-21 03:19:00,
2013-11-20 22:25:00,19.4,10.9,30.60,North,0,0.0,0.0,69,0.00,,,0.00,pywws,2013-11-21 03:25:00,
2013-11-20 22:31:00,19.6,11.1,30.60,North,0,0.0,0.0,69,0.00,,,0.00,pywws,2013-11-21 03:31:00,
2013-11-20 22:37:00,19.2,9.4,30.60,North,0,0.0,0.0,65,0.00,,,0.00,pywws,2013-11-21 03:37:00,
2013-11-20 22:43:00,19.0,9.2,30.60,North,0,0.0,0.0,65,0.00,,,0.00,pywws,2013-11-21 03:43:00,
2013-11-20 22:50:00,18.9,9.4,30.60,North,0,0.0,0.0,66,0.00,,,0.00,pywws,2013-11-21 03:50:00,
2013-11-20 22:56:00,18.9,9.4,30.60,North,0,0.0,0.0,66,0.00,,,0.00,pywws,2013-11-21 03:56:00,
2013-11-20 23:02:00,18.7,9.2,30.61,North,0,0.0,0.0,66,0.00,,,0.00,pywws,2013-11-21 04:02:00,
2013-11-20 23:07:00,18.0,8.5,30.61,North,0,0.0,0.0,66,0.00,,,0.00,pywws,2013-11-21 04:07:00,
2013-11-20 23:13:00,18.5,9.4,30.61,North,0,0.0,0.0,67,0.00,,,0.00,pywws,2013-11-21 04:13:00,
2013-11-20 23:19:00,18.1,9.1,30.61,North,0,0.0,0.0,67,0.00,,,0.00,pywws,2013-11-21 04:19:00,
2013-11-20 23:24:00,17.6,8.5,30.61,North,0,0.0,0.0,67,0.00,,,0.00,pywws,2013-11-21 04:24:00,
2013-11-20 23:30:00,17.8,8.7,30.61,North,0,0.0,0.0,67,0.00,,,0.00,pywws,2013-11-21 04:30:00,
2013-11-20 23:35:00,17.8,9.0,30.61,North,0,0.0,0.0,68,0.00,,,0.00,pywws,2013-11-21 04:35:00,
2013-11-20 23:41:00,18.3,9.9,30.62,North,0,0.0,0.0,69,0.00,,,0.00,pywws,2013-11-21 04:41:00,
2013-11-20 23:47:00,17.6,9.2,30.61,North,0,0.0,0.0,69,0.00,,,0.00,pywws,2013-11-21 04:47:00,
2013-11-20 23:52:00,18.0,9.5,30.61,North,0,0.0,0.0,69,0.00,,,0.00,pywws,2013-11-21 04:52:00,
2013-11-20 23:58:00,18.0,9.9,30.61,North,0,0.0,0.0,70,0.00,,,0.00,pywws,2013-11-21 04:58:00,